Time;durP1;ratioP1;P1;durP2;ratioP2;P2;SDS_P1;SDS_P2;PMS_P1;PMS_P2;Temp;Humidity;BMP_temperature;BMP_pressure;BME280_temperature;BME280_humidity;BME280_pressure;Samples;Min_cycle;Max_cycle;Signal;HPM_P1;HPM_P2
2023/05/20 00:00:27;;;;;;;5.20;4.43;;;23.00;86.40;;;;;;6265783;27;89647;-66
2023/05/20 00:03:29;;;;;;;4.88;4.28;;;23.00;86.30;;;;;;6258276;27;89110;-66
2023/05/20 00:06:32;;;;;;;4.70;4.30;;;23.00;86.20;;;;;;6266087;27;89988;-66
2023/05/20 00:09:36;;;;;;;5.05;4.55;;;23.00;86.20;;;;;;6265416;27;89001;-66
2023/05/20 00:12:38;;;;;;;6.07;4.53;;;23.00;86.30;;;;;;6254433;27;89100;-66
2023/05/20 00:15:40;;;;;;;6.20;4.97;;;23.00;86.40;;;;;;6262099;27;88579;-66
2023/05/20 00:18:42;;;;;;;5.75;5.05;;;23.00;86.30;;;;;;6269781;27;88997;-66
2023/05/20 00:21:44;;;;;;;4.78;4.35;;;22.90;86.30;;;;;;6274866;27;89025;-66
2023/05/20 00:24:47;;;;;;;4.85;4.43;;;22.90;86.30;;;;;;6269200;27;88524;-67
2023/05/20 00:27:49;;;;;;;5.15;4.65;;;23.00;86.40;;;;;;6276337;27;88262;-66
2023/05/20 00:30:51;;;;;;;5.85;5.00;;;23.00;86.10;;;;;;6268494;27;89020;-66
2023/05/20 00:33:53;;;;;;;5.47;4.97;;;23.00;86.00;;;;;;6275781;27;90636;-66
2023/05/20 00:36:55;;;;;;;5.35;4.50;;;22.90;86.00;;;;;;6281837;27;90028;-65
2023/05/20 00:39:58;;;;;;;4.80;4.40;;;23.00;85.80;;;;;;6270443;27;89029;-66
2023/05/20 00:43:00;;;;;;;4.93;4.53;;;23.00;85.80;;;;;;6272841;27;89292;-65
2023/05/20 00:46:02;;;;;;;5.78;4.55;;;22.90;85.70;;;;;;6269084;27;89263;-64
2023/05/20 00:49:05;;;;;;;5.05;4.45;;;22.90;85.50;;;;;;6268870;27;88016;-64
2023/05/20 00:52:08;;;;;;;4.88;4.47;;;22.90;85.60;;;;;;6282262;27;87960;-63
2023/05/20 00:55:12;;;;;;;4.85;4.38;;;22.90;85.60;;;;;;6271719;27;89170;-63
2023/05/20 00:58:14;;;;;;;5.13;4.63;;;22.90;85.70;;;;;;6272694;27;88364;-63
2023/05/20 01:01:16;;;;;;;5.03;4.55;;;22.90;85.70;;;;;;6265114;27;88457;-63
2023/05/20 01:04:18;;;;;;;5.13;4.60;;;22.90;85.50;;;;;;6267733;27;88924;-63
2023/05/20 01:07:20;;;;;;;5.10;4.57;;;22.90;85.50;;;;;;6263497;27;89994;-63
2023/05/20 01:10:28;;;;;;;5.55;4.80;;;22.90;85.40;;;;;;6272873;27;89176;-63
2023/05/20 01:13:36;;;;;;;4.82;4.32;;;22.90;85.40;;;;;;6268118;27;87877;-63
2023/05/20 01:16:39;;;;;;;5.10;4.32;;;22.90;85.20;;;;;;6274277;27;90172;-64
2023/05/20 01:19:43;;;;;;;4.95;4.55;;;22.90;85.20;;;;;;6280565;27;87971;-64
2023/05/20 01:22:52;;;;;;;4.85;4.45;;;22.80;85.20;;;;;;6280097;27;89098;-64
2023/05/20 01:25:55;;;;;;;4.53;4.13;;;22.90;85.20;;;;;;6270730;27;89049;-65
2023/05/20 01:29:03;;;;;;;5.07;4.57;;;22.90;85.20;;;;;;6275874;27;88207;-64
2023/05/20 01:32:09;;;;;;;4.75;4.35;;;22.80;85.10;;;;;;6263291;27;90445;-64
2023/05/20 01:35:11;;;;;;;5.20;4.30;;;22.90;85.20;;;;;;6255114;27;88073;-64
2023/05/20 01:38:17;;;;;;;4.85;4.45;;;22.80;85.00;;;;;;6257752;27;89987;-64
2023/05/20 01:41:20;;;;;;;4.78;4.38;;;22.80;85.00;;;;;;6269083;27;89001;-64
2023/05/20 01:44:23;;;;;;;5.90;4.40;;;22.80;85.00;;;;;;6268211;27;89059;-64
2023/05/20 01:47:25;;;;;;;5.05;4.32;;;22.80;84.90;;;;;;6264272;27;88025;-64
2023/05/20 01:50:27;;;;;;;4.60;4.20;;;22.90;85.00;;;;;;6271781;27;89662;-64
2023/05/20 01:53:30;;;;;;;4.90;4.50;;;22.80;84.90;;;;;;6273595;27;89002;-64
2023/05/20 01:56:32;;;;;;;5.25;4.75;;;22.70;84.80;;;;;;6270686;27;89073;-64
2023/05/20 01:59:34;;;;;;;4.88;4.47;;;22.80;84.90;;;;;;6261485;27;88285;-64
2023/05/20 02:02:36;;;;;;;4.93;4.43;;;22.80;84.90;;;;;;6273771;27;89123;-64
2023/05/20 02:05:38;;;;;;;5.18;4.60;;;22.80;84.90;;;;;;6271791;27;89073;-64
2023/05/20 02:08:42;;;;;;;6.38;4.97;;;22.70;84.80;;;;;;6276313;27;90313;-64
2023/05/20 02:11:44;;;;;;;4.80;4.40;;;22.80;84.80;;;;;;6265532;27;87939;-64
2023/05/20 02:14:48;;;;;;;4.63;4.22;;;22.80;84.90;;;;;;6273952;27;88137;-64
2023/05/20 02:17:50;;;;;;;4.88;4.38;;;22.80;84.90;;;;;;6260255;27;89080;-65
2023/05/20 02:20:51;;;;;;;5.18;4.68;;;22.80;84.90;;;;;;6273440;27;89135;-64
2023/05/20 02:23:55;;;;;;;5.38;4.60;;;22.70;84.80;;;;;;6280153;27;89155;-64
2023/05/20 02:26:57;;;;;;;5.28;4.78;;;22.70;84.80;;;;;;6263620;27;89132;-65
2023/05/20 02:30:01;;;;;;;5.82;5.28;;;22.70;84.70;;;;;;6261875;27;88422;-64
2023/05/20 02:33:03;;;;;;;5.25;4.82;;;22.70;84.70;;;;;;6260414;27;87823;-64
2023/05/20 02:36:05;;;;;;;5.15;4.45;;;22.70;84.70;;;;;;6263413;27;88976;-65
2023/05/20 02:39:08;;;;;;;5.75;5.10;;;22.70;84.80;;;;;;6264399;27;90322;-64
2023/05/20 02:42:12;;;;;;;5.13;4.68;;;22.70;84.70;;;;;;6265305;27;89271;-64
2023/05/20 02:45:14;;;;;;;5.20;4.80;;;22.70;84.70;;;;;;6267613;27;89069;-64
2023/05/20 02:48:16;;;;;;;5.53;4.97;;;22.70;84.80;;;;;;6262757;27;89485;-64
2023/05/20 02:51:18;;;;;;;5.05;4.65;;;22.70;84.60;;;;;;6264621;27;89067;-65
2023/05/20 02:54:21;;;;;;;5.72;4.75;;;22.70;84.50;;;;;;6264607;27;90065;-65
2023/05/20 02:57:23;;;;;;;5.50;4.80;;;22.70;84.50;;;;;;6264830;27;89296;-64
2023/05/20 03:00:27;;;;;;;5.20;4.70;;;22.70;84.50;;;;;;6266647;27;88647;-65
2023/05/20 03:03:29;;;;;;;5.47;4.97;;;22.70;84.50;;;;;;6278524;27;88932;-65
2023/05/20 03:06:31;;;;;;;5.60;5.10;;;22.70;84.50;;;;;;6263733;27;88738;-65
2023/05/20 03:09:35;;;;;;;5.60;5.10;;;22.70;84.50;;;;;;6257241;27;89936;-65
2023/05/20 03:12:37;;;;;;;5.50;5.00;;;22.70;84.50;;;;;;6253913;27;89292;-64
2023/05/20 03:15:39;;;;;;;5.10;4.57;;;22.70;84.50;;;;;;6261347;27;89666;-64
2023/05/20 03:18:41;;;;;;;5.45;4.95;;;22.70;84.50;;;;;;6278937;27;89068;-64
2023/05/20 03:21:45;;;;;;;5.60;5.10;;;22.60;84.50;;;;;;6266889;27;89384;-65
2023/05/20 03:24:48;;;;;;;5.40;4.85;;;22.60;84.50;;;;;;6267946;27;89606;-64
2023/05/20 03:27:50;;;;;;;5.70;5.03;;;22.60;84.50;;;;;;6277948;27;90290;-64
2023/05/20 03:30:52;;;;;;;5.75;5.18;;;22.70;84.50;;;;;;6264893;27;88447;-64
2023/05/20 03:33:54;;;;;;;5.57;5.07;;;22.60;84.40;;;;;;6257634;27;89151;-64
2023/05/20 03:36:58;;;;;;;5.30;4.80;;;22.60;84.40;;;;;;6261751;27;89418;-64
2023/05/20 03:40:04;;;;;;;5.82;5.22;;;22.60;84.40;;;;;;6265715;27;89799;-64
2023/05/20 03:43:06;;;;;;;6.10;5.50;;;22.60;84.30;;;;;;6258419;27;88485;-64
2023/05/20 03:46:08;;;;;;;5.63;5.03;;;22.60;84.40;;;;;;6263839;27;89058;-64
2023/05/20 03:49:10;;;;;;;5.57;5.07;;;22.60;84.50;;;;;;6276873;27;88644;-63
2023/05/20 03:52:12;;;;;;;5.63;5.10;;;22.60;85.40;;;;;;6261605;27;89382;-62
2023/05/20 03:55:16;;;;;;;5.78;5.03;;;22.70;86.40;;;;;;6279269;27;89089;-63
2023/05/20 03:58:19;;;;;;;6.05;5.40;;;22.70;86.30;;;;;;6274619;27;89154;-64
2023/05/20 04:01:24;;;;;;;6.75;5.53;;;22.70;85.90;;;;;;6269022;27;88761;-63
2023/05/20 04:04:26;;;;;;;6.88;5.45;;;22.70;85.40;;;;;;6275453;27;89074;-64
2023/05/20 04:07:28;;;;;;;6.25;5.65;;;22.70;85.40;;;;;;6267566;27;89107;-64
2023/05/20 04:10:32;;;;;;;6.60;5.35;;;22.70;85.60;;;;;;6263889;27;90062;-64
2023/05/20 04:13:33;;;;;;;6.53;4.78;;;22.70;86.40;;;;;;6267768;27;90289;-64
2023/05/20 04:16:36;;;;;;;7.78;4.95;;;22.70;86.20;;;;;;6279861;27;88466;-64
2023/05/20 04:19:38;;;;;;;10.00;5.50;;;22.80;86.10;;;;;;6270034;27;89091;-64
2023/05/20 04:22:40;;;;;;;5.85;5.18;;;22.80;86.10;;;;;;6279276;27;89351;-64
2023/05/20 04:25:43;;;;;;;8.90;5.57;;;22.80;86.00;;;;;;6279466;27;87511;-64
2023/05/20 04:28:47;;;;;;;6.30;5.00;;;22.80;85.90;;;;;;6271182;27;89041;-64
2023/05/20 04:31:49;;;;;;;7.70;5.45;;;22.80;85.90;;;;;;6268711;27;88289;-64
2023/05/20 04:34:53;;;;;;;7.85;5.68;;;22.80;85.80;;;;;;6265876;27;87963;-64
2023/05/20 04:37:55;;;;;;;5.63;5.13;;;22.90;85.90;;;;;;6267692;27;89018;-64
2023/05/20 04:40:58;;;;;;;6.32;5.18;;;22.90;85.90;;;;;;6269792;27;90026;-64
2023/05/20 04:44:00;;;;;;;7.75;5.65;;;22.80;85.90;;;;;;6282336;27;87769;-64
2023/05/20 04:47:03;;;;;;;6.28;5.38;;;22.90;85.90;;;;;;6272889;27;89034;-64
2023/05/20 04:50:09;;;;;;;6.28;5.30;;;22.90;86.00;;;;;;6278986;27;88244;-64
2023/05/20 04:53:11;;;;;;;6.03;5.30;;;22.80;85.90;;;;;;6272473;27;87850;-64
2023/05/20 04:56:14;;;;;;;7.32;5.55;;;22.90;86.10;;;;;;6284246;27;89140;-64
2023/05/20 04:59:17;;;;;;;7.45;5.70;;;22.90;86.10;;;;;;6278335;27;88945;-64
2023/05/20 05:02:19;;;;;;;5.97;5.25;;;22.80;86.00;;;;;;6282284;27;88347;-64
2023/05/20 05:05:20;;;;;;;6.30;5.70;;;22.90;85.90;;;;;;6270840;27;89024;-64
2023/05/20 05:08:22;;;;;;;6.63;5.57;;;22.90;85.90;;;;;;6263134;27;89230;-64
2023/05/20 05:11:26;;;;;;;7.13;5.80;;;22.90;85.90;;;;;;6270839;27;90275;-64
2023/05/20 05:14:28;;;;;;;6.65;5.97;;;22.90;85.90;;;;;;6284288;27;89112;-64
2023/05/20 05:17:30;;;;;;;6.93;6.18;;;22.90;85.90;;;;;;6263529;27;89110;-63
2023/05/20 05:20:32;;;;;;;8.50;5.65;;;22.90;85.90;;;;;;6279099;27;89101;-64
2023/05/20 05:23:34;;;;;;;6.93;5.78;;;22.90;85.80;;;;;;6273240;27;89157;-64
2023/05/20 05:26:37;;;;;;;6.72;6.03;;;22.90;86.30;;;;;;6269091;27;89009;-64
2023/05/20 05:29:39;;;;;;;6.78;6.15;;;22.90;86.60;;;;;;6280060;27;88403;-64
2023/05/20 05:32:41;;;;;;;5.97;5.15;;;22.90;86.20;;;;;;6267609;27;88389;-64
2023/05/20 05:35:43;;;;;;;6.63;6.03;;;22.90;85.90;;;;;;6273603;27;89017;-64
2023/05/20 05:38:45;;;;;;;6.85;5.40;;;22.90;85.70;;;;;;6263417;27;89100;-64
2023/05/20 05:41:49;;;;;;;6.50;5.90;;;22.90;85.70;;;;;;6271680;27;90127;-64
2023/05/20 05:44:51;;;;;;;6.18;5.68;;;22.90;85.60;;;;;;6290925;27;89068;-64
2023/05/20 05:47:53;;;;;;;6.35;5.75;;;22.90;85.50;;;;;;6280312;27;88968;-64
2023/05/20 05:50:55;;;;;;;6.68;6.00;;;22.90;85.50;;;;;;6258826;27;88102;-64
2023/05/20 05:53:57;;;;;;;6.82;6.15;;;22.90;85.50;;;;;;6259392;27;89058;-64
2023/05/20 05:57:00;;;;;;;6.32;5.68;;;22.90;85.50;;;;;;6259531;27;89073;-64
2023/05/20 06:00:03;;;;;;;6.55;5.95;;;22.90;85.60;;;;;;6269965;27;89168;-64
2023/05/20 06:03:05;;;;;;;6.90;6.20;;;22.90;85.60;;;;;;6290753;27;88540;-65
2023/05/20 06:06:07;;;;;;;6.82;6.18;;;22.90;85.60;;;;;;6267460;27;89456;-64
2023/05/20 06:09:09;;;;;;;6.80;6.20;;;22.90;85.50;;;;;;6263162;27;89119;-64
2023/05/20 06:12:12;;;;;;;6.63;6.03;;;22.90;85.50;;;;;;6276648;27;89984;-63
2023/05/20 06:15:14;;;;;;;6.28;5.68;;;22.90;85.40;;;;;;6272195;27;89046;-66
2023/05/20 06:18:16;;;;;;;6.57;5.95;;;22.90;85.40;;;;;;6272940;27;89075;-66
2023/05/20 06:21:19;;;;;;;6.78;6.10;;;22.90;85.50;;;;;;6268367;27;89239;-66
2023/05/20 06:24:21;;;;;;;7.28;6.57;;;23.00;85.50;;;;;;6288410;27;89070;-66
2023/05/20 06:27:24;;;;;;;6.38;5.78;;;23.00;85.50;;;;;;6282862;27;89113;-66
2023/05/20 06:30:26;;;;;;;6.65;6.05;;;22.90;85.50;;;;;;6269702;27;89018;-66
2023/05/20 06:33:28;;;;;;;6.50;5.90;;;23.00;85.50;;;;;;6280815;27;88321;-66
2023/05/20 06:36:30;;;;;;;6.68;6.00;;;23.00;85.50;;;;;;6275430;27;89216;-66
2023/05/20 06:39:32;;;;;;;6.82;6.10;;;23.00;85.50;;;;;;6284232;27;89048;-67
2023/05/20 06:42:35;;;;;;;6.75;6.15;;;23.00;85.40;;;;;;6280708;27;88846;-64
2023/05/20 06:45:37;;;;;;;6.70;6.10;;;23.00;85.40;;;;;;6275917;27;89267;-64
2023/05/20 06:48:39;;;;;;;7.50;6.32;;;23.00;85.40;;;;;;6274546;27;89076;-65
2023/05/20 06:51:42;;;;;;;6.05;5.55;;;23.00;85.40;;;;;;6257726;27;89131;-64
2023/05/20 06:54:44;;;;;;;6.97;6.28;;;23.00;85.40;;;;;;6268668;27;89069;-64
2023/05/20 06:57:48;;;;;;;6.53;5.93;;;23.00;85.40;;;;;;6290975;27;89147;-64
2023/05/20 07:00:50;;;;;;;6.80;6.10;;;23.00;85.40;;;;;;6270228;27;87849;-64
2023/05/20 07:03:52;;;;;;;6.30;5.70;;;23.00;85.40;;;;;;6278367;27;88442;-64
2023/05/20 07:06:54;;;;;;;6.72;6.13;;;23.00;85.40;;;;;;6279845;27;89836;-64
2023/05/20 07:09:56;;;;;;;6.60;6.00;;;23.00;85.40;;;;;;6269580;27;89101;-64
2023/05/20 07:12:59;;;;;;;6.80;6.20;;;23.00;85.40;;;;;;6271562;27;90068;-64
2023/05/20 07:16:01;;;;;;;6.57;5.97;;;23.00;85.40;;;;;;6281436;27;89159;-64
2023/05/20 07:19:03;;;;;;;6.28;5.75;;;23.00;85.30;;;;;;6267556;27;90497;-64
2023/05/20 07:22:06;;;;;;;6.57;5.97;;;23.10;85.30;;;;;;6273663;27;89099;-64
2023/05/20 07:25:08;;;;;;;7.10;6.40;;;23.10;85.30;;;;;;6272818;27;89398;-64
2023/05/20 07:28:12;;;;;;;6.13;5.60;;;23.10;85.40;;;;;;6280875;27;89107;-64
2023/05/20 07:31:14;;;;;;;6.40;5.88;;;23.10;85.40;;;;;;6266639;27;91140;-64
2023/05/20 07:34:16;;;;;;;7.07;6.38;;;23.10;85.40;;;;;;6278404;27;88410;-65
2023/05/20 07:37:18;;;;;;;6.70;6.10;;;23.10;85.30;;;;;;6256284;27;89109;-64
2023/05/20 07:40:26;;;;;;;6.60;6.00;;;23.10;85.30;;;;;;6270477;27;89098;-64
2023/05/20 07:43:29;;;;;;;6.40;5.80;;;23.10;85.30;;;;;;6265166;27;90510;-64
2023/05/20 07:46:31;;;;;;;6.88;6.18;;;23.10;85.20;;;;;;6266140;27;89050;-64
2023/05/20 07:49:33;;;;;;;6.25;5.75;;;23.10;85.20;;;;;;6272616;27;87901;-64
2023/05/20 07:52:35;;;;;;;6.72;6.13;;;23.10;85.20;;;;;;6287272;27;89136;-64
2023/05/20 07:55:37;;;;;;;6.35;5.75;;;23.10;85.20;;;;;;6271730;27;89091;-64
2023/05/20 07:58:42;;;;;;;6.20;5.63;;;23.10;85.20;;;;;;6271150;27;89114;-64
2023/05/20 08:01:44;;;;;;;6.75;6.15;;;23.10;85.20;;;;;;6270035;27;89144;-64
2023/05/20 08:04:46;;;;;;;6.57;5.97;;;23.10;85.20;;;;;;6270054;27;88359;-64
2023/05/20 08:07:48;;;;;;;6.35;5.75;;;23.10;85.20;;;;;;6268715;27;89019;-64
2023/05/20 08:10:51;;;;;;;6.45;5.80;;;23.10;85.20;;;;;;6277149;27;89133;-64
2023/05/20 08:13:54;;;;;;;6.75;6.05;;;23.10;85.20;;;;;;6266447;27;90142;-64
2023/05/20 08:16:56;;;;;;;6.95;6.28;;;23.10;85.20;;;;;;6267447;27;89240;-64
2023/05/20 08:19:58;;;;;;;6.97;6.38;;;23.10;85.30;;;;;;6268725;27;90744;-64
2023/05/20 08:23:00;;;;;;;6.47;5.97;;;23.10;85.20;;;;;;6265627;27;89468;-64
2023/05/20 08:26:02;;;;;;;6.85;6.25;;;23.10;85.30;;;;;;6264585;27;89046;-64
2023/05/20 08:29:07;;;;;;;6.35;5.75;;;23.10;85.30;;;;;;6267040;27;92705;-64
2023/05/20 08:32:09;;;;;;;6.68;6.05;;;23.10;85.30;;;;;;6264947;27;89147;-64
2023/05/20 08:35:11;;;;;;;6.63;6.03;;;23.10;85.30;;;;;;6257660;27;88241;-64
2023/05/20 08:38:13;;;;;;;6.82;6.22;;;23.10;85.30;;;;;;6263146;27;89452;-64
2023/05/20 08:41:16;;;;;;;6.22;5.72;;;23.10;85.40;;;;;;6260753;27;88948;-64
2023/05/20 08:44:21;;;;;;;6.03;5.53;;;23.10;85.30;;;;;;6262898;27;90305;-63
2023/05/20 08:47:23;;;;;;;6.55;5.95;;;23.10;85.40;;;;;;6268245;27;89125;-64
2023/05/20 08:50:25;;;;;;;6.15;5.55;;;23.10;85.40;;;;;;6280328;27;89086;-64
2023/05/20 08:53:27;;;;;;;6.45;5.95;;;23.10;85.40;;;;;;6269673;27;89099;-64
2023/05/20 08:56:30;;;;;;;6.53;5.93;;;23.10;85.40;;;;;;6264966;27;89680;-64
2023/05/20 08:59:34;;;;;;;6.57;5.97;;;23.10;85.40;;;;;;6267527;27;89379;-63
2023/05/20 09:02:37;;;;;;;6.68;6.07;;;23.10;85.40;;;;;;6266389;27;89040;-64
2023/05/20 09:05:39;;;;;;;6.97;6.28;;;23.10;85.40;;;;;;6285621;27;88254;-64
2023/05/20 09:08:43;;;;;;;6.72;6.13;;;23.10;85.40;;;;;;6268489;27;89102;-64
2023/05/20 09:11:45;;;;;;;6.55;5.80;;;23.10;85.40;;;;;;6277196;27;89309;-64
2023/05/20 09:14:49;;;;;;;6.40;5.80;;;23.10;85.40;;;;;;6270943;27;91618;-64
2023/05/20 09:17:51;;;;;;;6.50;5.90;;;23.10;85.40;;;;;;6275335;27;89130;-64
2023/05/20 09:20:53;;;;;;;6.57;5.97;;;23.10;85.50;;;;;;6269511;27;87966;-64
2023/05/20 09:24:01;;;;;;;6.07;5.57;;;23.10;85.60;;;;;;6270822;27;88135;-65
2023/05/20 09:27:04;;;;;;;6.50;5.90;;;23.10;85.60;;;;;;6268517;27;89174;-65
2023/05/20 09:30:11;;;;;;;6.38;5.78;;;23.10;85.70;;;;;;6266885;27;88832;-64
2023/05/20 09:33:13;;;;;;;6.47;5.88;;;23.10;85.50;;;;;;6276110;27;88933;-64
2023/05/20 09:36:16;;;;;;;6.45;5.90;;;23.10;85.60;;;;;;6268276;27;88818;-64
2023/05/20 09:39:25;;;;;;;6.68;5.32;;;23.10;85.50;;;;;;6276330;27;89087;-64
2023/05/20 09:42:32;;;;;;;6.28;5.78;;;23.10;85.60;;;;;;6265668;27;89374;-64
2023/05/20 09:45:36;;;;;;;6.80;6.07;;;23.10;85.60;;;;;;6267110;27;90145;-64
2023/05/20 09:48:38;;;;;;;6.35;5.78;;;23.10;85.60;;;;;;6267492;27;88326;-64
2023/05/20 09:51:41;;;;;;;6.07;5.57;;;23.10;85.70;;;;;;6279350;27;87909;-64
2023/05/20 09:54:45;;;;;;;6.38;5.78;;;23.10;85.70;;;;;;6270878;27;89530;-64
2023/05/20 09:57:47;;;;;;;6.00;5.50;;;23.10;85.80;;;;;;6267231;27;89060;-64
2023/05/20 10:00:50;;;;;;;6.53;5.93;;;23.10;85.80;;;;;;6262610;27;89086;-64
2023/05/20 10:03:53;;;;;;;6.85;6.15;;;23.10;85.80;;;;;;6267385;27;89083;-64
2023/05/20 10:07:18;;;;;;;6.57;5.97;;;23.10;85.70;;;;;;6267550;27;88685;-64
2023/05/20 10:10:32;;;;;;;6.65;6.05;;;23.10;85.70;;;;;;6268105;27;90229;-64
2023/05/20 10:13:50;;;;;;;6.30;5.80;;;23.10;85.70;;;;;;6284724;27;88354;-64
2023/05/20 10:17:07;;;;;;;6.13;5.57;;;23.10;85.70;;;;;;6268802;27;92474;-64
2023/05/20 10:20:10;;;;;;;6.57;5.97;;;23.10;85.70;;;;;;6270226;27;88999;-64
2023/05/20 10:23:21;;;;;;;7.13;6.50;;;23.10;85.70;;;;;;6272879;27;89278;-64
2023/05/20 10:26:24;;;;;;;7.72;6.85;;;23.10;85.90;;;;;;6289852;27;90218;-64
2023/05/20 10:29:26;;;;;;;7.82;7.15;;;23.10;85.90;;;;;;6291350;27;89106;-64
2023/05/20 10:32:31;;;;;;;8.48;7.40;;;23.10;86.00;;;;;;6266330;27;89037;-64
2023/05/20 10:35:33;;;;;;;9.02;8.02;;;23.10;86.10;;;;;;6266301;27;88081;-64
2023/05/20 10:38:35;;;;;;;9.05;8.10;;;23.10;86.20;;;;;;6267615;27;88688;-62
2023/05/20 10:41:37;;;;;;;12.60;8.98;;;23.10;86.90;;;;;;6270165;27;89554;-63
2023/05/20 10:44:42;;;;;;;10.18;8.95;;;23.10;89.10;;;;;;6268785;27;89030;-62
2023/05/20 10:47:56;;;;;;;11.20;9.30;;;23.10;90.40;;;;;;6273347;27;89990;-64
2023/05/20 10:51:02;;;;;;;12.05;9.73;;;23.10;90.20;;;;;;6277977;27;89068;-65
2023/05/20 10:54:04;;;;;;;12.43;10.27;;;23.20;89.80;;;;;;6268886;27;88985;-64
2023/05/20 10:57:08;;;;;;;10.18;9.02;;;23.20;89.40;;;;;;6253690;27;88996;-64
2023/05/20 11:00:11;;;;;;;12.82;9.73;;;23.20;89.10;;;;;;6255438;27;90509;-65
2023/05/20 11:03:15;;;;;;;11.63;10.43;;;23.20;89.10;;;;;;6259230;27;89148;-64
2023/05/20 11:06:18;;;;;;;11.50;10.30;;;23.20;89.00;;;;;;6257313;27;89257;-64
2023/05/20 11:09:20;;;;;;;12.23;10.25;;;23.10;89.20;;;;;;6261798;27;88382;-65
2023/05/20 11:12:23;;;;;;;12.85;10.48;;;23.10;89.30;;;;;;6267579;27;89659;-65
2023/05/20 11:15:25;;;;;;;12.20;10.50;;;23.10;89.60;;;;;;6276708;27;89812;-64
2023/05/20 11:18:30;;;;;;;13.00;10.15;;;23.10;89.70;;;;;;6270450;27;90020;-65
2023/05/20 11:21:33;;;;;;;11.35;10.13;;;23.10;90.00;;;;;;6262848;27;89282;-65
2023/05/20 11:24:34;;;;;;;11.57;10.38;;;23.10;90.00;;;;;;6260801;27;89363;-64
2023/05/20 11:27:40;;;;;;;12.48;10.93;;;23.10;90.10;;;;;;6255010;27;89106;-65
2023/05/20 11:30:42;;;;;;;13.52;10.82;;;23.10;90.10;;;;;;6266565;27;89079;-64
2023/05/20 11:33:46;;;;;;;12.23;10.38;;;23.10;90.20;;;;;;6266613;27;87967;-65
2023/05/20 11:36:49;;;;;;;12.38;10.70;;;23.10;90.30;;;;;;6274098;27;89073;-64
2023/05/20 11:40:06;;;;;;;11.30;10.20;;;23.10;90.40;;;;;;6260973;27;88136;-64
2023/05/20 11:43:12;;;;;;;12.25;9.80;;;23.10;90.30;;;;;;6260874;27;89206;-64
2023/05/20 11:46:14;;;;;;;11.15;9.95;;;23.10;90.40;;;;;;6267939;27;89261;-65
2023/05/20 11:49:17;;;;;;;10.70;9.63;;;23.10;90.40;;;;;;6272425;27;90030;-64
2023/05/20 11:52:19;;;;;;;10.32;9.23;;;23.10;90.40;;;;;;6262624;27;88792;-64
2023/05/20 11:55:21;;;;;;;12.25;9.88;;;23.10;90.40;;;;;;6271280;27;88895;-65
2023/05/20 11:58:25;;;;;;;12.40;10.00;;;23.00;90.50;;;;;;6264050;27;89297;-64
2023/05/20 12:01:27;;;;;;;11.13;9.93;;;23.00;90.60;;;;;;6258694;27;89079;-65
2023/05/20 12:04:31;;;;;;;11.32;9.90;;;23.00;90.90;;;;;;6267785;27;89213;-65
2023/05/20 12:07:33;;;;;;;12.02;9.88;;;23.00;90.90;;;;;;6274548;27;89140;-65
2023/05/20 12:10:36;;;;;;;11.73;9.90;;;23.00;90.90;;;;;;6267564;27;88260;-65
2023/05/20 12:13:39;;;;;;;11.57;9.93;;;23.00;91.00;;;;;;6264884;27;90617;-65
2023/05/20 12:16:41;;;;;;;11.15;9.48;;;23.00;91.00;;;;;;6268235;27;89173;-64
2023/05/20 12:19:44;;;;;;;10.13;9.15;;;23.00;91.00;;;;;;6264512;27;90010;-65
2023/05/20 12:22:47;;;;;;;10.52;9.43;;;23.00;91.10;;;;;;6266829;27;89246;-64
2023/05/20 12:25:49;;;;;;;10.55;8.93;;;23.00;91.10;;;;;;6279827;27;89085;-65
2023/05/20 12:28:51;;;;;;;11.50;9.82;;;23.00;91.40;;;;;;6274415;27;89087;-64
2023/05/20 12:31:53;;;;;;;11.50;9.73;;;23.00;91.40;;;;;;6270012;27;88970;-64
2023/05/20 12:34:56;;;;;;;10.65;9.35;;;23.00;91.50;;;;;;6277904;27;89051;-65
2023/05/20 12:37:59;;;;;;;10.20;9.10;;;23.00;91.50;;;;;;6275057;27;89030;-65
2023/05/20 12:41:02;;;;;;;12.77;10.00;;;23.00;91.50;;;;;;6264030;27;88496;-65
2023/05/20 12:44:04;;;;;;;12.05;9.27;;;23.00;91.60;;;;;;6260130;27;89254;-65
2023/05/20 12:47:06;;;;;;;10.68;9.48;;;23.00;91.80;;;;;;6267965;27;89160;-65
2023/05/20 12:50:11;;;;;;;10.52;9.30;;;23.10;91.70;;;;;;6265561;27;89996;-64
2023/05/20 12:53:13;;;;;;;12.15;9.52;;;23.00;91.60;;;;;;6265041;27;89094;-64
2023/05/20 12:56:15;;;;;;;11.32;9.32;;;23.00;92.60;;;;;;6269049;27;89067;-65
2023/05/20 12:59:17;;;;;;;12.38;8.75;;;23.00;92.80;;;;;;6266629;27;89415;-63
2023/05/20 13:02:19;;;;;;;11.48;9.30;;;23.00;93.20;;;;;;6264923;27;89036;-65
2023/05/20 13:05:23;;;;;;;12.35;9.25;;;23.10;94.00;;;;;;6286700;27;88047;-65
2023/05/20 13:08:25;;;;;;;11.20;9.23;;;23.10;93.70;;;;;;6268546;27;89168;-65
2023/05/20 13:11:27;;;;;;;11.80;9.00;;;23.10;94.10;;;;;;6270171;27;89691;-65
2023/05/20 13:14:30;;;;;;;13.38;9.95;;;23.20;94.40;;;;;;6270539;27;89480;-63
2023/05/20 13:17:32;;;;;;;14.30;9.13;;;23.30;93.90;;;;;;6267562;27;89127;-63
2023/05/20 13:20:36;;;;;;;11.75;9.50;;;23.30;93.40;;;;;;6273093;27;90087;-64
2023/05/20 13:23:40;;;;;;;10.07;9.07;;;23.30;93.20;;;;;;6271697;27;87975;-64
2023/05/20 13:26:42;;;;;;;13.02;9.50;;;23.30;93.10;;;;;;6260789;27;89279;-64
2023/05/20 13:29:44;;;;;;;11.52;8.52;;;23.30;93.10;;;;;;6271643;27;89128;-64
2023/05/20 13:32:46;;;;;;;9.93;8.90;;;23.30;93.10;;;;;;6268404;27;89465;-64
2023/05/20 13:35:50;;;;;;;10.98;8.90;;;23.30;93.10;;;;;;6265824;27;89443;-64
2023/05/20 13:38:52;;;;;;;10.88;8.32;;;23.30;93.10;;;;;;6268779;27;89059;-64
2023/05/20 13:41:54;;;;;;;9.95;8.93;;;23.30;93.10;;;;;;6270980;27;88343;-64
2023/05/20 13:44:56;;;;;;;11.75;9.80;;;23.40;93.20;;;;;;6263340;27;89114;-64
2023/05/20 13:47:58;;;;;;;11.65;8.13;;;23.40;93.20;;;;;;6269020;27;89084;-64
2023/05/20 13:51:01;;;;;;;10.55;8.25;;;23.40;93.10;;;;;;6261509;27;90315;-63
2023/05/20 13:54:05;;;;;;;10.27;8.70;;;23.40;93.10;;;;;;6268638;27;89045;-64
2023/05/20 13:57:07;;;;;;;9.02;7.95;;;23.40;93.00;;;;;;6265509;27;88735;-63
2023/05/20 14:00:10;;;;;;;10.68;8.48;;;23.50;92.90;;;;;;6267852;27;89040;-64
2023/05/20 14:03:12;;;;;;;9.73;8.43;;;23.50;92.80;;;;;;6278801;27;89350;-64
2023/05/20 14:06:17;;;;;;;9.95;8.52;;;23.50;92.70;;;;;;6271463;27;90401;-64
2023/05/20 14:09:19;;;;;;;10.27;8.25;;;23.50;92.60;;;;;;6265597;27;89455;-64
2023/05/20 14:12:23;;;;;;;11.85;8.32;;;23.50;92.50;;;;;;6265906;27;88400;-65
2023/05/20 14:15:25;;;;;;;9.10;7.88;;;23.50;92.50;;;;;;6269427;27;89368;-65
2023/05/20 14:18:27;;;;;;;11.25;8.27;;;23.50;92.60;;;;;;6272840;27;89486;-66
2023/05/20 14:21:30;;;;;;;10.63;8.20;;;23.50;92.60;;;;;;6265934;27;90010;-65
2023/05/20 14:24:32;;;;;;;10.55;8.13;;;23.50;92.70;;;;;;6269904;27;89023;-65
2023/05/20 14:27:35;;;;;;;8.55;7.63;;;23.50;92.80;;;;;;6260679;27;89036;-66
2023/05/20 14:30:38;;;;;;;10.55;8.10;;;23.50;92.90;;;;;;6266156;27;89048;-65
2023/05/20 14:33:40;;;;;;;11.50;8.35;;;23.50;93.00;;;;;;6265018;27;88083;-66
2023/05/20 14:36:43;;;;;;;8.85;7.55;;;23.50;93.10;;;;;;6258716;27;89365;-65
2023/05/20 14:39:45;;;;;;;8.95;7.90;;;23.50;93.20;;;;;;6267177;27;89207;-66
2023/05/20 14:42:47;;;;;;;11.13;7.70;;;23.50;93.30;;;;;;6264385;27;88615;-66
2023/05/20 14:45:49;;;;;;;13.18;8.25;;;23.40;93.20;;;;;;6263568;27;89343;-65
2023/05/20 14:48:51;;;;;;;10.40;8.00;;;23.50;93.30;;;;;;6273307;27;89118;-66
2023/05/20 14:51:55;;;;;;;8.68;7.78;;;23.50;93.30;;;;;;6264709;27;88865;-66
2023/05/20 14:54:57;;;;;;;9.07;7.60;;;23.40;93.40;;;;;;6259339;27;89115;-66
2023/05/20 14:57:59;;;;;;;11.32;8.35;;;23.40;93.40;;;;;;6267444;27;89144;-65
2023/05/20 15:01:01;;;;;;;8.40;7.60;;;23.40;93.40;;;;;;6256176;27;89246;-65
2023/05/20 15:04:03;;;;;;;9.00;8.10;;;23.50;93.50;;;;;;6267317;27;89180;-65
2023/05/20 15:07:07;;;;;;;12.30;7.78;;;23.40;93.40;;;;;;6268672;27;88917;-65
2023/05/20 15:10:09;;;;;;;9.82;7.68;;;23.40;93.80;;;;;;6264155;27;89258;-65
2023/05/20 15:13:11;;;;;;;8.85;7.80;;;23.40;93.90;;;;;;6264067;27;88373;-65
2023/05/20 15:16:13;;;;;;;11.10;7.80;;;23.40;94.00;;;;;;6270841;27;89011;-65
2023/05/20 15:19:16;;;;;;;8.55;7.50;;;23.40;94.20;;;;;;6271653;27;89123;-65
2023/05/20 15:22:20;;;;;;;8.15;7.35;;;23.40;94.40;;;;;;6269745;27;89956;-65
2023/05/20 15:25:22;;;;;;;9.52;7.85;;;23.40;94.60;;;;;;6275254;27;88940;-64
2023/05/20 15:28:24;;;;;;;10.20;7.95;;;23.40;94.70;;;;;;6259805;27;89043;-65
2023/05/20 15:31:25;;;;;;;8.98;7.28;;;23.40;94.80;;;;;;6274376;27;90206;-64
2023/05/20 15:34:27;;;;;;;10.25;7.53;;;23.40;94.80;;;;;;6262485;27;90959;-65
2023/05/20 15:37:31;;;;;;;8.68;7.55;;;23.30;94.80;;;;;;6265227;27;89196;-66
2023/05/20 15:40:33;;;;;;;10.20;8.05;;;23.40;95.00;;;;;;6252502;27;89178;-65
2023/05/20 15:43:35;;;;;;;8.48;7.57;;;23.40;95.70;;;;;;6234860;27;88360;-64
2023/05/20 15:46:37;;;;;;;11.07;7.63;;;23.30;96.20;;;;;;6239315;27;89032;-64